createdAt,value
2022-10-24T00:00:15.507Z,4.63
2022-10-24T00:02:42.339Z,2.78
2022-10-24T00:05:11.719Z,3.35
2022-10-24T00:07:38.403Z,3.47
2022-10-24T00:10:05.925Z,3.45
2022-10-24T00:12:32.746Z,5.28
2022-10-24T00:14:59.684Z,5.22
2022-10-24T00:17:26.402Z,2.90
2022-10-24T00:19:54.254Z,3.70
2022-10-24T00:22:21.254Z,3.58
2022-10-24T00:24:47.907Z,4.68
2022-10-24T00:27:14.546Z,4.35
2022-10-24T00:29:41.383Z,3.42
2022-10-24T00:32:08.021Z,3.92
2022-10-24T00:34:34.755Z,7.40
2022-10-24T00:37:02.198Z,4.18
2022-10-24T00:39:28.877Z,5.32
2022-10-24T00:41:58.815Z,2.85
2022-10-24T00:44:28.742Z,5.43
2022-10-24T00:47:05.397Z,4.30
2022-10-24T00:49:43.804Z,3.55
2022-10-24T00:52:11.791Z,6.22
2022-10-24T00:54:40.915Z,6.78
2022-10-24T00:57:22.364Z,5.65
2022-10-24T00:59:55.310Z,5.82
2022-10-24T01:02:22.074Z,5.15
2022-10-24T01:04:48.708Z,2.88
2022-10-24T01:07:26.576Z,3.00
2022-10-24T01:10:08.540Z,4.10
2022-10-24T01:13:16.409Z,5.50
2022-10-24T01:15:52.235Z,4.95
2022-10-24T01:18:31.817Z,4.63
2022-10-24T01:21:12.515Z,4.55
2022-10-24T01:24:00.065Z,8.02
2022-10-24T01:26:35.826Z,6.20
2022-10-24T01:29:17.300Z,4.72
2022-10-24T01:32:03.916Z,4.30
2022-10-24T01:34:45.200Z,8.00
2022-10-24T01:37:28.425Z,3.72
2022-10-24T01:40:00.636Z,7.55
2022-10-24T01:42:31.175Z,4.63
2022-10-24T01:45:01.906Z,4.40
2022-10-24T01:47:37.041Z,6.13
2022-10-24T01:50:09.810Z,2.03
2022-10-24T01:52:39.607Z,4.55
2022-10-24T01:55:06.995Z,4.85
2022-10-24T01:57:34.766Z,2.20
2022-10-24T02:00:05.135Z,5.38
2022-10-24T02:02:47.585Z,3.53
2022-10-24T02:05:20.997Z,4.13
2022-10-24T02:07:53.655Z,2.30
2022-10-24T02:10:30.875Z,2.78
2022-10-24T02:13:03.566Z,4.32
2022-10-24T02:15:36.557Z,4.53
2022-10-24T02:18:03.510Z,3.10
2022-10-24T02:20:46.936Z,3.50
2022-10-24T02:23:21.125Z,4.15
2022-10-24T02:25:52.269Z,5.05
2022-10-24T02:28:26.316Z,5.47
2022-10-24T02:31:12.129Z,2.92
2022-10-24T02:33:41.911Z,3.75
2022-10-24T02:36:12.154Z,3.60
2022-10-24T02:38:42.737Z,4.68
2022-10-24T02:41:13.828Z,3.70
2022-10-24T02:43:42.653Z,2.65
2022-10-24T02:46:11.169Z,5.13
2022-10-24T02:48:44.419Z,2.40
2022-10-24T02:51:14.204Z,3.03
2022-10-24T02:53:40.958Z,2.55
2022-10-24T02:56:07.777Z,5.68
2022-10-24T02:58:34.390Z,4.55
2022-10-24T03:01:01.227Z,3.10
2022-10-24T03:03:28.061Z,2.42
2022-10-24T03:05:54.699Z,7.68
2022-10-24T03:08:21.452Z,3.17
2022-10-24T03:10:48.034Z,2.28
2022-10-24T03:13:14.717Z,8.35
2022-10-24T03:15:41.413Z,4.13
2022-10-24T03:18:08.083Z,3.40
2022-10-24T03:20:34.840Z,4.20
2022-10-24T03:23:01.656Z,5.07
2022-10-24T03:25:28.381Z,4.47
2022-10-24T03:27:55.016Z,3.80
2022-10-24T03:30:21.679Z,2.25
2022-10-24T03:32:48.538Z,4.43
2022-10-24T03:35:16.476Z,4.50
2022-10-24T03:37:43.489Z,3.50
2022-10-24T03:40:11.543Z,4.85
2022-10-24T03:42:38.569Z,7.72
2022-10-24T03:45:06.189Z,3.22
2022-10-24T03:47:33.445Z,4.60
2022-10-24T03:50:00.653Z,4.53
2022-10-24T03:52:27.985Z,4.15
2022-10-24T03:54:54.648Z,4.75
2022-10-24T03:59:52.931Z,4.03
2022-10-24T04:02:19.656Z,4.28
2022-10-24T04:04:46.352Z,2.50
2022-10-24T04:07:12.985Z,5.93
2022-10-24T04:09:39.730Z,3.70
2022-10-24T04:12:06.431Z,7.15
2022-10-24T04:14:33.156Z,7.30
2022-10-24T04:16:59.861Z,7.88
2022-10-24T04:19:26.531Z,13.95
2022-10-24T04:21:53.549Z,16.98
2022-10-24T04:24:20.249Z,13.68
2022-10-24T04:26:47.466Z,3.92
2022-10-24T04:29:17.451Z,8.82
2022-10-24T04:31:44.086Z,5.07
2022-10-24T04:34:10.953Z,4.78
2022-10-24T04:36:37.597Z,3.17
2022-10-24T04:39:04.831Z,6.80
2022-10-24T04:41:31.544Z,6.50
2022-10-24T04:43:58.452Z,3.03
2022-10-24T04:46:25.346Z,2.05
2022-10-24T04:48:53.504Z,1.95
2022-10-24T04:51:22.393Z,2.88
2022-10-24T04:53:50.484Z,6.38
2022-10-24T04:56:18.779Z,3.30
2022-10-24T04:58:45.935Z,2.90
2022-10-24T05:01:12.815Z,5.63
2022-10-24T05:03:39.519Z,3.08
2022-10-24T05:06:06.280Z,4.68
2022-10-24T05:08:33.011Z,3.38
2022-10-24T05:10:59.629Z,6.65
2022-10-24T05:13:26.345Z,3.40
2022-10-24T05:15:52.993Z,3.33
2022-10-24T05:18:19.634Z,4.68
2022-10-24T05:20:46.618Z,6.38
2022-10-24T05:23:13.328Z,4.45
2022-10-24T05:25:40.061Z,6.72
2022-10-24T05:28:06.682Z,5.13
2022-10-24T05:30:33.372Z,7.70
2022-10-24T05:33:00.091Z,4.53
2022-10-24T05:35:26.697Z,6.55
2022-10-24T05:37:53.353Z,7.05
2022-10-24T05:40:20.186Z,4.18
2022-10-24T05:42:47.209Z,4.22
2022-10-24T05:45:14.146Z,6.32
2022-10-24T05:47:40.801Z,4.22
2022-10-24T05:50:08.158Z,5.53
2022-10-24T05:52:36.371Z,6.20
2022-10-24T05:55:08.204Z,4.15
2022-10-24T05:57:37.568Z,7.80
2022-10-24T06:00:09.251Z,5.32
2022-10-24T06:02:39.792Z,5.03
2022-10-24T06:05:07.820Z,8.05
2022-10-24T06:07:35.235Z,3.20
2022-10-24T06:10:04.515Z,6.85
2022-10-24T06:12:31.258Z,6.43
2022-10-24T06:14:59.122Z,9.32
2022-10-24T06:17:26.077Z,7.50
2022-10-24T06:19:52.768Z,3.83
2022-10-24T06:22:19.562Z,4.05
2022-10-24T06:24:46.432Z,7.72
2022-10-24T06:27:13.329Z,5.03
2022-10-24T06:29:39.990Z,6.80
2022-10-24T06:32:06.712Z,4.63
2022-10-24T06:34:33.597Z,9.30
2022-10-24T06:37:00.292Z,9.65
2022-10-24T06:39:27.009Z,9.07
2022-10-24T06:41:53.722Z,6.25
2022-10-24T06:44:20.418Z,7.53
2022-10-24T06:46:47.158Z,4.22
2022-10-24T06:49:14.905Z,6.78
2022-10-24T06:51:41.709Z,5.35
2022-10-24T06:54:08.799Z,6.68
2022-10-24T06:56:35.743Z,7.50
2022-10-24T06:59:02.485Z,4.78
2022-10-24T07:01:29.344Z,5.30
2022-10-24T07:03:56.114Z,7.57
2022-10-24T07:06:28.489Z,4.65
2022-10-24T07:08:57.451Z,5.60
2022-10-24T07:11:24.591Z,4.13
2022-10-24T07:13:53.279Z,5.60
2022-10-24T07:16:23.259Z,4.97
2022-10-24T07:18:50.021Z,6.22
2022-10-24T07:21:20.717Z,8.93
2022-10-24T07:23:47.530Z,5.88
2022-10-24T07:26:17.577Z,5.43
2022-10-24T07:28:46.590Z,6.00
2022-10-24T07:31:17.354Z,6.25
2022-10-24T07:33:44.185Z,7.47
2022-10-24T07:36:15.616Z,4.10
2022-10-24T07:38:42.250Z,6.05
2022-10-24T07:41:08.994Z,5.28
2022-10-24T07:43:35.673Z,6.43
2022-10-24T07:46:06.480Z,5.53
2022-10-24T07:48:33.683Z,4.22
2022-10-24T07:51:00.857Z,4.55
2022-10-24T07:53:27.581Z,6.15
2022-10-24T07:55:54.749Z,5.63
2022-10-24T07:58:21.412Z,6.55
2022-10-24T08:00:48.074Z,7.88
2022-10-24T08:03:14.812Z,8.23
2022-10-24T08:05:41.682Z,8.07
2022-10-24T08:08:27.331Z,8.82
2022-10-24T08:10:55.839Z,9.73
2022-10-24T08:13:22.625Z,8.48
2022-10-24T08:15:49.391Z,8.80
2022-10-24T08:18:16.044Z,6.20
2022-10-24T08:20:42.951Z,5.15
2022-10-24T08:23:09.814Z,6.18
2022-10-24T08:25:40.035Z,7.65
2022-10-24T08:28:09.004Z,5.78
2022-10-24T08:30:36.075Z,3.50
2022-10-24T08:33:02.847Z,6.70
2022-10-24T08:35:29.535Z,5.50
2022-10-24T08:37:56.240Z,10.60
2022-10-24T08:40:23.163Z,11.95
2022-10-24T08:42:50.267Z,8.52
2022-10-24T08:45:27.107Z,7.18
2022-10-24T08:48:04.909Z,4.80
2022-10-24T08:50:34.661Z,4.03
2022-10-24T08:53:06.729Z,4.70
2022-10-24T08:55:54.711Z,6.40
2022-10-24T08:58:38.287Z,4.63
2022-10-24T09:01:13.293Z,7.55
2022-10-24T09:03:57.505Z,8.57
2022-10-24T09:06:27.647Z,5.63
2022-10-24T09:09:17.700Z,5.85
2022-10-24T09:12:03.908Z,4.78
2022-10-24T09:14:33.452Z,5.18
2022-10-24T09:17:14.864Z,2.63
2022-10-24T09:19:47.539Z,3.65
2022-10-24T09:22:14.599Z,3.17
2022-10-24T09:24:46.013Z,3.42
2022-10-24T09:27:18.195Z,4.68
2022-10-24T09:29:45.205Z,2.35
2022-10-24T09:32:18.436Z,3.22
2022-10-24T09:34:45.411Z,3.88
2022-10-24T09:37:44.176Z,5.15
2022-10-24T09:40:26.248Z,3.25
2022-10-24T09:43:18.764Z,2.22
2022-10-24T09:45:50.705Z,3.03
2022-10-24T09:48:45.393Z,9.07
2022-10-24T09:51:49.724Z,4.45
2022-10-24T09:54:19.176Z,1.95
2022-10-24T09:56:55.285Z,4.10
2022-10-24T09:59:38.702Z,2.78
2022-10-24T10:02:12.760Z,1.92
2022-10-24T10:04:41.427Z,4.63
2022-10-24T10:07:14.895Z,3.60
2022-10-24T10:09:55.604Z,2.05
2022-10-24T10:12:28.839Z,4.38
2022-10-24T10:14:55.871Z,4.10
2022-10-24T10:17:26.510Z,4.47
2022-10-24T10:19:55.343Z,3.00
2022-10-24T10:22:34.441Z,2.67
2022-10-24T10:25:01.114Z,3.78
2022-10-24T10:27:35.332Z,4.85
2022-10-24T10:30:17.219Z,4.35
2022-10-24T10:32:52.878Z,2.72
2022-10-24T10:35:24.787Z,3.30
2022-10-24T10:37:58.448Z,7.43
2022-10-24T10:40:40.076Z,5.18
2022-10-24T10:43:48.624Z,3.17
2022-10-24T10:46:37.131Z,2.92
2022-10-24T10:49:31.278Z,3.17
2022-10-24T10:52:22.215Z,3.20
2022-10-24T10:55:10.276Z,3.60
2022-10-24T10:58:21.552Z,5.68
2022-10-24T11:01:18.531Z,4.03
2022-10-24T11:04:32.181Z,3.30
2022-10-24T11:07:07.783Z,2.42
2022-10-24T11:09:44.465Z,5.50
2022-10-24T11:12:20.114Z,4.75
2022-10-24T11:15:03.363Z,5.88
2022-10-24T11:17:38.763Z,5.10
2022-10-24T11:20:23.705Z,6.18
2022-10-24T11:23:20.076Z,6.00
2022-10-24T11:25:52.312Z,5.85
2022-10-24T11:28:34.015Z,4.13
2022-10-24T11:31:18.629Z,5.90
2022-10-24T11:33:57.101Z,5.97
2022-10-24T11:36:28.743Z,5.50
2022-10-24T11:39:08.167Z,6.50
2022-10-24T11:41:50.082Z,5.10
2022-10-24T11:44:45.929Z,6.43
2022-10-24T11:47:24.615Z,3.88
2022-10-24T11:50:13.299Z,3.78
2022-10-24T11:52:44.904Z,7.30
2022-10-24T11:55:21.588Z,4.35
2022-10-24T11:57:56.190Z,5.18
2022-10-24T12:00:52.819Z,3.70
2022-10-24T12:03:51.092Z,4.97
2022-10-24T12:06:48.534Z,4.38
2022-10-24T12:09:35.140Z,5.25
2022-10-24T12:12:20.562Z,3.28
2022-10-24T12:14:56.453Z,5.15
2022-10-24T12:17:42.230Z,4.53
2022-10-24T12:20:15.250Z,12.18
2022-10-24T12:22:44.514Z,5.22
2022-10-24T12:25:37.649Z,3.22
2022-10-24T12:28:08.630Z,5.35
2022-10-24T12:30:36.488Z,2.53
2022-10-24T12:33:03.111Z,4.82
2022-10-24T12:35:34.234Z,6.32
2022-10-24T12:38:03.239Z,3.17
2022-10-24T12:40:55.444Z,6.35
2022-10-24T12:43:28.873Z,6.22
2022-10-24T12:46:00.160Z,5.03
2022-10-24T12:48:35.873Z,5.95
2022-10-24T12:51:31.361Z,5.18
2022-10-24T12:54:13.279Z,4.05
2022-10-24T12:56:52.530Z,6.18
2022-10-24T12:59:26.383Z,2.58
2022-10-24T13:02:13.425Z,4.13
2022-10-24T13:04:55.694Z,2.63
2022-10-24T13:07:40.413Z,4.63
2022-10-24T13:10:42.736Z,4.03
2022-10-24T13:13:33.942Z,4.22
2022-10-24T13:16:13.205Z,7.43
2022-10-24T13:19:00.880Z,5.07
2022-10-24T13:21:31.335Z,4.38
2022-10-24T13:24:22.215Z,2.70
2022-10-24T13:26:55.848Z,6.25
2022-10-24T13:29:28.388Z,5.22
2022-10-24T13:32:18.594Z,4.43
2022-10-24T13:34:52.377Z,5.35
2022-10-24T13:37:25.070Z,6.28
2022-10-24T13:40:08.351Z,3.97
2022-10-24T13:42:55.338Z,4.85
2022-10-24T13:45:33.711Z,6.78
2022-10-24T13:48:08.100Z,4.47
2022-10-24T13:50:41.161Z,4.25
2022-10-24T13:53:30.310Z,9.00
2022-10-24T13:56:02.573Z,5.63
2022-10-24T13:58:42.127Z,6.00
2022-10-24T14:01:27.586Z,5.00
2022-10-24T14:03:56.199Z,4.50
2022-10-24T14:06:33.631Z,5.10
2022-10-24T14:09:07.484Z,5.20
2022-10-24T14:11:39.554Z,5.65
2022-10-24T14:14:14.129Z,3.67
2022-10-24T14:16:40.820Z,3.40
2022-10-24T14:19:15.357Z,3.97
2022-10-24T14:21:48.289Z,3.80
2022-10-24T14:24:18.425Z,5.60
2022-10-24T14:26:46.817Z,6.50
2022-10-24T14:29:23.266Z,6.13
2022-10-24T14:31:59.969Z,6.63
2022-10-24T14:34:30.426Z,3.30
2022-10-24T14:37:06.578Z,8.95
2022-10-24T14:39:34.128Z,4.82
2022-10-24T14:42:02.197Z,5.93
2022-10-24T14:44:29.388Z,3.55
2022-10-24T14:47:03.258Z,6.80
2022-10-24T14:49:36.567Z,5.50
2022-10-24T14:52:12.759Z,4.28
2022-10-24T14:54:42.656Z,6.28
2022-10-24T14:57:18.864Z,5.28
2022-10-24T14:59:47.634Z,4.47
2022-10-24T15:02:28.828Z,4.60
2022-10-24T15:05:20.417Z,6.10
2022-10-24T15:08:09.208Z,4.53
2022-10-24T15:10:38.766Z,6.90
2022-10-24T15:13:17.430Z,5.47
2022-10-24T15:15:44.040Z,4.75
2022-10-24T15:18:40.769Z,10.07
2022-10-24T15:21:14.446Z,7.43
2022-10-24T15:23:54.718Z,3.28
2022-10-24T15:26:34.677Z,5.15
2022-10-24T15:29:19.151Z,6.13
2022-10-24T15:31:48.153Z,7.40
2022-10-24T15:34:17.593Z,7.90
2022-10-24T15:36:46.937Z,5.70
2022-10-24T15:39:17.687Z,7.82
2022-10-24T15:41:44.415Z,6.25
2022-10-24T15:44:17.568Z,4.72
2022-10-24T15:46:45.254Z,3.97
2022-10-24T15:49:12.581Z,6.05
2022-10-24T15:51:45.922Z,5.03
2022-10-24T15:54:17.652Z,4.32
2022-10-24T15:56:44.407Z,5.68
2022-10-24T15:59:11.266Z,7.28
2022-10-24T16:01:42.598Z,6.25
2022-10-24T16:04:10.380Z,5.80
2022-10-24T16:06:37.288Z,5.72
2022-10-24T16:09:06.716Z,6.47
2022-10-24T16:11:33.494Z,7.60
2022-10-24T16:14:00.217Z,5.28
2022-10-24T16:16:27.040Z,9.75
2022-10-24T16:18:53.780Z,3.80
2022-10-24T16:21:21.388Z,5.10
2022-10-24T16:23:48.702Z,7.85
2022-10-24T16:26:16.123Z,9.02
2022-10-24T16:28:42.838Z,5.40
2022-10-24T16:31:11.326Z,5.43
2022-10-24T16:33:38.030Z,5.72
2022-10-24T16:36:04.915Z,5.03
2022-10-24T16:38:31.668Z,5.43
2022-10-24T16:40:58.478Z,8.13
2022-10-24T16:43:25.177Z,5.30
2022-10-24T16:45:59.591Z,4.18
2022-10-24T16:48:26.820Z,5.60
2022-10-24T16:50:53.959Z,6.18
2022-10-24T16:53:21.775Z,6.40
2022-10-24T16:55:50.316Z,6.15
2022-10-24T16:58:18.503Z,7.72
2022-10-24T17:00:46.600Z,4.78
2022-10-24T17:03:13.767Z,4.85
2022-10-24T17:05:40.938Z,6.63
2022-10-24T17:08:07.717Z,6.07
2022-10-24T17:10:34.450Z,3.63
2022-10-24T17:13:01.923Z,7.43
2022-10-24T17:15:28.728Z,5.63
2022-10-24T17:17:55.464Z,3.22
2022-10-24T17:20:22.178Z,5.13
2022-10-24T17:22:49.489Z,4.15
2022-10-24T17:25:23.009Z,4.13
2022-10-24T17:27:50.141Z,5.15
2022-10-24T17:30:25.885Z,6.93
2022-10-24T17:32:53.511Z,4.63
2022-10-24T17:35:22.529Z,4.30
2022-10-24T17:38:01.426Z,4.15
2022-10-24T17:40:34.991Z,3.97
2022-10-24T17:43:03.013Z,5.15
2022-10-24T17:45:29.931Z,4.22
2022-10-24T17:47:56.784Z,6.50
2022-10-24T17:50:23.478Z,7.65
2022-10-24T17:52:51.276Z,5.80
2022-10-24T17:55:40.974Z,5.82
2022-10-24T17:58:07.896Z,5.80
2022-10-24T18:00:35.272Z,4.65
2022-10-24T18:03:03.478Z,5.07
2022-10-24T18:05:30.405Z,4.05
2022-10-24T18:07:58.031Z,3.28
2022-10-24T18:10:26.061Z,2.60
2022-10-24T18:12:52.918Z,3.33
2022-10-24T18:15:20.774Z,4.15
2022-10-24T18:17:48.244Z,6.40
2022-10-24T18:20:16.200Z,4.57
2022-10-24T18:22:44.103Z,2.90
2022-10-24T18:25:12.750Z,2.70
2022-10-24T18:27:41.096Z,3.47
2022-10-24T18:30:09.012Z,3.97
2022-10-24T18:32:35.938Z,1.58
2022-10-24T18:35:03.155Z,5.13
2022-10-24T18:37:29.985Z,2.67
2022-10-24T18:39:56.932Z,1.67
2022-10-24T18:42:59.686Z,2.30
2022-10-24T18:45:27.645Z,2.40
2022-10-24T18:47:54.883Z,1.65
2022-10-24T18:50:23.797Z,1.50
2022-10-24T18:52:53.463Z,2.47
2022-10-24T18:55:29.157Z,4.10
2022-10-24T18:57:56.398Z,1.77
2022-10-24T19:00:25.432Z,2.72
2022-10-24T19:03:25.126Z,1.08
2022-10-24T19:05:55.814Z,0.52
2022-10-24T19:08:25.238Z,0.73
2022-10-24T19:10:55.117Z,2.05
2022-10-24T19:13:27.058Z,1.65
2022-10-24T19:16:00.113Z,0.50
2022-10-24T19:18:29.762Z,0.22
2022-10-24T19:20:59.955Z,2.22
2022-10-24T19:23:26.714Z,0.55
2022-10-24T19:25:53.830Z,0.73
2022-10-24T19:28:20.816Z,1.77
2022-10-24T19:30:48.355Z,1.58
2022-10-24T19:33:16.367Z,1.23
2022-10-24T19:35:47.391Z,0.52
2022-10-24T19:38:16.190Z,0.40
2022-10-24T19:40:54.170Z,0.30
2022-10-24T19:43:25.758Z,0.77
2022-10-24T19:46:07.650Z,1.35
2022-10-24T19:48:42.586Z,1.42
2022-10-24T19:51:12.286Z,0.60
2022-10-24T19:53:40.972Z,1.00
2022-10-24T19:56:10.749Z,0.90
2022-10-24T19:58:37.817Z,1.25
2022-10-24T20:01:10.003Z,1.48
2022-10-24T20:03:40.733Z,1.33
2022-10-24T20:06:07.948Z,1.85
2022-10-24T20:08:35.186Z,1.23
2022-10-24T20:11:02.643Z,2.72
2022-10-24T20:13:29.659Z,3.15
2022-10-24T20:16:05.505Z,2.42
2022-10-24T20:18:34.373Z,1.27
2022-10-24T20:21:07.037Z,1.83
2022-10-24T20:23:35.115Z,1.38
2022-10-24T20:26:09.615Z,1.77
2022-10-24T20:28:43.264Z,1.17
2022-10-24T20:31:28.366Z,1.30
2022-10-24T20:34:05.175Z,0.77
2022-10-24T20:36:37.514Z,1.65
2022-10-24T20:39:06.260Z,1.20
2022-10-24T20:41:33.698Z,1.27
2022-10-24T20:44:01.222Z,0.75
2022-10-24T20:46:27.985Z,0.28
2022-10-24T20:48:54.914Z,2.20
2022-10-24T20:51:22.104Z,1.20
2022-10-24T20:53:49.461Z,1.75
2022-10-24T20:56:18.786Z,1.45
2022-10-24T20:58:45.768Z,7.38
2022-10-24T21:01:26.939Z,1.10
2022-10-24T21:03:55.109Z,0.43
2022-10-24T21:06:27.443Z,1.67
2022-10-24T21:08:56.613Z,1.85
2022-10-24T21:11:26.541Z,0.90
2022-10-24T21:13:59.277Z,0.43
2022-10-24T21:16:26.947Z,0.40
2022-10-24T21:18:54.465Z,0.52
2022-10-24T21:21:22.643Z,1.30
2022-10-24T21:23:54.363Z,1.08
2022-10-24T21:26:21.780Z,1.77
2022-10-24T21:28:49.057Z,0.43
2022-10-24T21:31:18.463Z,0.55
2022-10-24T21:33:45.574Z,0.65
2022-10-24T21:36:15.009Z,0.73
2022-10-24T21:38:45.605Z,0.50
2022-10-24T21:41:12.356Z,0.15
2022-10-24T21:43:41.067Z,0.93
2022-10-24T21:46:16.516Z,1.25
2022-10-24T21:48:43.805Z,1.75
2022-10-24T21:51:14.651Z,0.43
2022-10-24T21:53:46.699Z,1.23
2022-10-24T21:56:16.455Z,0.70
2022-10-24T21:58:51.333Z,1.52
2022-10-24T22:01:20.572Z,0.50
2022-10-24T22:03:47.828Z,1.67
2022-10-24T22:06:16.754Z,1.85
2022-10-24T22:08:44.866Z,5.88
2022-10-24T22:11:14.210Z,2.55
2022-10-24T22:13:41.733Z,1.50
2022-10-24T22:16:10.222Z,1.15
2022-10-24T22:18:37.134Z,0.88
2022-10-24T22:21:06.103Z,0.50
2022-10-24T22:23:33.192Z,0.88
2022-10-24T22:26:02.053Z,1.85
2022-10-24T22:28:28.828Z,0.50
2022-10-24T22:30:55.857Z,1.05
2022-10-24T22:33:35.404Z,2.92
2022-10-24T22:36:39.541Z,1.67
2022-10-24T22:39:14.482Z,1.20
2022-10-24T22:41:42.090Z,0.40
2022-10-24T22:44:11.162Z,2.25
2022-10-24T22:47:02.304Z,2.15
2022-10-24T22:49:35.095Z,0.32
2022-10-24T22:52:02.025Z,1.23
2022-10-24T22:54:35.024Z,1.95
2022-10-24T22:57:03.126Z,1.52
2022-10-24T22:59:30.244Z,1.33
2022-10-24T23:02:03.122Z,2.78
2022-10-24T23:04:36.340Z,1.40
2022-10-24T23:07:25.096Z,1.42
2022-10-24T23:09:54.133Z,1.45
2022-10-24T23:12:22.298Z,4.65
2022-10-24T23:14:50.741Z,1.52
2022-10-24T23:17:22.336Z,1.20
2022-10-24T23:19:49.627Z,1.88
2022-10-24T23:22:25.256Z,1.15
2022-10-24T23:24:54.444Z,1.05
2022-10-24T23:27:38.333Z,1.98
2022-10-24T23:30:22.741Z,1.95
2022-10-24T23:32:51.047Z,4.85
2022-10-24T23:35:19.605Z,3.38
2022-10-24T23:37:50.906Z,1.48
2022-10-24T23:40:17.526Z,2.38
2022-10-24T23:42:45.781Z,4.68
2022-10-24T23:45:14.690Z,0.90
2022-10-24T23:47:43.943Z,3.67
2022-10-24T23:50:16.622Z,7.95
2022-10-24T23:52:55.137Z,2.13
2022-10-24T23:55:22.132Z,1.55
2022-10-24T23:57:48.922Z,0.68
